AirNav   Air Wisconsin Up To $57,000 Bonus
 
 1489 users online  

KMKV Marksville Municipal Airport
Marksville, Louisiana, USA

GOING TO MARKSVILLE?


FAA INFORMATION EFFECTIVE 02 JANUARY 2020

Location

FAA Identifier: MKV
Lat/Long: 31-05-40.8000N 092-04-08.6000W
31-05.680000N 092-04.143333W
31.0946667,-92.0690556
(estimated)
Elevation: 78.7 ft. / 24.0 m (surveyed)
Variation: 02E (2005)
From city: 1 mile S of MARKSVILLE, LA
Time zone: UTC -6 (UTC -5 during Daylight Saving Time)
Zip code: 71350

Airport Operations

Airport use: Open to the public
Activation date: 04/1950
Control tower: no
ARTCC: HOUSTON CENTER
FSS: DE RIDDER FLIGHT SERVICE STATION
NOTAMs facility: DRI (NOTAM-D service available)
Attendance: MON-FRI 0700-1400
Wind indicator: lighted
Segmented circle: yes
Lights: REIL RWY 4/22; MIRL RWY 04/22 PRESET LOW INTST; TO INCR INTST ACTVT - CTAF-
Beacon: white-green (lighted land airport)
Operates sunset to sunrise.

Airport Communications

CTAF: 122.9
POLK APPROACH: 125.4
POLK DEPARTURE: 125.4

Nearby radio navigation aids

VOR radial/distance  VOR name  Freq  Var
AEXr111/24.2ALEXANDRIA VORTAC116.1003E

 
NDB name  Hdg/Dist  Freq  Var  ID
DURALDE029/37.626302EECY . -.-. -.--

Airport Services

Fuel available: 100LL
FUEL AVBL 24/7 WITH CC.
Parking: tiedowns
Bottled oxygen: NONE
Bulk oxygen: NONE

Runway Information

Runway 4/22

Dimensions: 3799 x 75 ft. / 1158 x 23 m
Surface: asphalt, in good condition
Weight bearing capacity: 
Single wheel: 19.0
Runway edge lights: medium intensity
RUNWAY 4  RUNWAY 22
Latitude: 31-05.456558N31-05.901805N
Longitude: 092-04.399788W092-03.887283W
Elevation: 74.1 ft.78.5 ft.
Traffic pattern: leftleft
Runway heading: 043 magnetic, 045 true223 magnetic, 225 true
Markings: nonprecision, in good conditionnonprecision, in good condition
Visual slope indicator: 2-light PAPI on left (3.00 degrees glide path)2-light PAPI on left (3.00 degrees glide path)
Runway end identifier lights: yesyes
Touchdown point: yes, no lightsyes, no lights
Obstructions: 52 ft. trees, 2247 ft. from runway, 39:1 slope to clear26 ft. pole, 671 ft. from runway, 58 ft. left of centerline, 18:1 slope to clear

Airport Ownership and Management from official FAA records

Ownership: Publicly-owned
Owner: AVOYELLES PARISH AIRPORT AUTHORITY
312 NORTH MAIN ST
MARKSVILLE, LA 71351
Phone 318-253-9208
Manager: ALVIN MOREAU
157 JOHNSON RD.
MARKSVILLE, LA 71351
Phone 318-447-3197

Airport Operational Statistics

Aircraft based on the field: 15
Single engine airplanes: 15
    
Aircraft operations: avg 28/day *
79% local general aviation
21% transient general aviation
* for 12-month period ending 25 September 2018

Additional Remarks

NE APN PAVEMENT FAILED.
AERIAL SPRAYING INVOF ARPT.
NE APN HLDG PSN NSTD.
FOR CD CTC POLK APCH AT 337-531-2352.

Instrument Procedures

NOTE: All procedures below are presented as PDF files. If you need a reader for these files, you should download the free Adobe Reader.

NOT FOR NAVIGATION. Please procure official charts for flight.
FAA instrument procedures published for use from 02 January 2020 at 0901Z to 30 January 2020 at 0900Z.

 
IAPs - Instrument Approach Procedures
RNAV (GPS) RWY 04   download (156KB)
VOR/DME-A   download (157KB)
NOTE: Special Take-Off Minimums/Departure Procedures apply   download (116KB)

Other nearby airports with instrument procedures:

2R6 - Bunkie Municipal Airport (12 nm SW)
KESF - Esler Regional Airport (21 nm NW)
KAEX - Alexandria International Airport (28 nm NW)
KOPL - St Landry Parish Airport-Ahart Field (32 nm S)
KHZR - False River Regional Airport (38 nm SE)
 
Loc | Ops | Rwys | IFR | FBO | Links
Com | Nav | Svcs | Stats | Notes
Area around KMKV (Marksville Municipal Airport)
 
Road maps at: MapQuest Bing Google
 
Aerial photo
WARNING: Photo may not be current or correct
Aerial photo of KMKV (Marksville Municipal Airport)
Do you have a better or more recent aerial photo of Marksville Municipal Airport that you would like to share? If so, please send us your photo.

 
Sectional chart

 
Airport distance calculator
Flying to Marksville Municipal Airport? Find the distance to fly.

From to KMKV

Sunrise and sunset
Times for 27-Jan-2020
 Local
(UTC-6)
 Zulu
(UTC)
Morning civil twilight06:3912:39
Sunrise07:0413:04
Sunset17:3823:38
Evening civil twilight18:0400:04

Current date and time
Zulu (UTC)  28-Jan-2020 03:59:41
Local (UTC-6)  27-Jan-2020 21:59:41
 
METAR
KESF 
21nm NW 
280353Z AUTO 00000KT 2 1/2SM BR SCT001 06/04 A3003 RMK AO2 SLP168 T00560044
KAEX 
29nm NW 
280353Z 11005KT 10SM CLR 08/07 A3001 RMK AO2 SLP168 T00780067
KOPL 
32nm S 
271810Z AUTO 02004G14KT 10SM OVC013 13/09 A3004 RMK AO2 T01270093
KHZR 
38nm SE 
280337Z AUTO 00000KT 3SM BR CLR 08/08 A3004 RMK AO2
K0R4 
40nm NE 
280210Z AUTO 00000KT 1/2SM FG VV005 07/06 A3004 RMK AO2 T00650061
TAF
KAEX 
29nm NW 
272228Z 2722/2818 VRB05KT P6SM SCT015 TEMPO 2722/2724 BKN015 FM280600 VRB03KT P6SM BKN015 FM280900 VRB03KT 5SM BR OVC007 FM281500 11003KT P6SM OVC012
NOTAMs
Click for the latest NOTAMs
NOTAMs are issued by the DoD/FAA and will open in a separate window not controlled by AirNav.

 

 
 

FBO, Fuel Providers, and Aircraft Ground Support

  
 Business Name 
 
 Contact 
 
 Services / Description 
 
Fuel Prices
 
Comments
  
Marksville Municipal Airport 318-240-3088
318-253-7291
[email]
Airport management, Aviation fuel, Aircraft parking (ramp or tiedown)

More info about Marksville Municipal Airport
Phillips 66
100LL
SS $4.69 
 Updated 22-Jan-2020
 
   write
SS=Self service
Update Fuel Prices
 

Would you like to see your business listed on this page?

 If your business provides an interesting product or service to pilots, flight crews, aircraft, or users of the Marksville Municipal Airport, you should consider listing it here.  To start the listing process, click on the button below
 
Add a business
 

Other Pages about Marksville Municipal Airport

Update a link
 
Copyright © AirNav, LLC. All rights reserved. Privacy Policy  Contact